createdAt,value
2023-04-20T00:01:20.570Z,36.75
2023-04-20T00:03:47.190Z,37.20
2023-04-20T00:06:14.086Z,36.85
2023-04-20T00:08:40.688Z,35.95
2023-04-20T00:11:07.226Z,38.05
2023-04-20T00:13:33.800Z,37.35
2023-04-20T00:16:00.594Z,37.78
2023-04-20T00:18:27.167Z,38.20
2023-04-20T00:20:53.785Z,36.58
2023-04-20T00:23:20.564Z,36.55
2023-04-20T00:25:49.675Z,38.05
2023-04-20T00:28:16.292Z,35.70
2023-04-20T00:30:42.879Z,35.70
2023-04-20T00:33:09.443Z,35.67
2023-04-20T00:35:36.053Z,36.17
2023-04-20T00:38:02.603Z,37.60
2023-04-20T00:40:29.279Z,36.50
2023-04-20T00:42:55.868Z,38.22
2023-04-20T00:45:22.590Z,37.05
2023-04-20T00:47:49.308Z,34.67
2023-04-20T00:50:16.183Z,36.25
2023-04-20T00:52:42.927Z,39.40
2023-04-20T00:55:09.772Z,41.72
2023-04-20T00:57:36.504Z,39.95
2023-04-20T01:00:03.736Z,39.90
2023-04-20T01:02:30.424Z,41.10
2023-04-20T01:04:57.131Z,41.33
2023-04-20T01:07:26.010Z,41.60
2023-04-20T01:09:52.596Z,40.90
2023-04-20T01:12:19.174Z,40.10
2023-04-20T01:14:45.734Z,41.65
2023-04-20T01:17:15.103Z,40.60
2023-04-20T01:19:42.120Z,41.78
2023-04-20T01:22:08.648Z,42.53
2023-04-20T01:24:35.190Z,42.40
2023-04-20T01:27:01.794Z,44.88
2023-04-20T01:29:28.426Z,44.15
2023-04-20T01:31:55.164Z,45.25
2023-04-20T01:34:21.730Z,45.15
2023-04-20T01:36:48.355Z,43.35
2023-04-20T01:39:15.085Z,43.95
2023-04-20T01:41:41.879Z,42.15
2023-04-20T01:44:08.448Z,44.05
2023-04-20T01:46:41.712Z,44.05
2023-04-20T01:49:08.864Z,44.53
2023-04-20T01:51:35.896Z,40.00
2023-04-20T01:54:02.953Z,44.40
2023-04-20T01:56:29.564Z,45.55
2023-04-20T01:58:56.167Z,50.33
2023-04-20T02:01:22.809Z,51.45
2023-04-20T02:03:50.011Z,50.92
2023-04-20T02:06:17.089Z,50.83
2023-04-20T02:08:43.749Z,52.35
2023-04-20T02:11:10.333Z,51.58
2023-04-20T02:13:36.921Z,52.05
2023-04-20T02:16:03.613Z,50.10
2023-04-20T02:18:32.319Z,49.17
2023-04-20T02:21:00.917Z,50.08
2023-04-20T02:23:27.809Z,49.33
2023-04-20T02:25:54.549Z,52.20
2023-04-20T02:28:21.093Z,51.08
2023-04-20T02:30:47.679Z,49.20
2023-04-20T02:33:14.356Z,50.17
2023-04-20T02:35:40.917Z,47.22
2023-04-20T02:38:07.502Z,45.53
2023-04-20T02:40:34.035Z,45.35
2023-04-20T02:43:00.614Z,48.65
2023-04-20T02:45:27.151Z,47.17
2023-04-20T02:47:53.811Z,44.38
2023-04-20T02:50:20.936Z,43.38
2023-04-20T02:52:47.518Z,45.20
2023-04-20T02:55:14.296Z,45.05
2023-04-20T02:57:40.902Z,43.53
2023-04-20T03:00:09.087Z,44.97
2023-04-20T03:02:37.596Z,44.35
2023-04-20T03:05:04.696Z,42.33
2023-04-20T03:07:31.591Z,43.58
2023-04-20T03:09:58.138Z,44.60
2023-04-20T03:12:24.809Z,43.95
2023-04-20T03:14:51.827Z,44.10
2023-04-20T03:17:18.383Z,44.05
2023-04-20T03:19:44.959Z,44.00
2023-04-20T03:22:11.929Z,42.45
2023-04-20T03:24:38.451Z,43.38
2023-04-20T03:27:06.257Z,43.95
2023-04-20T03:29:32.823Z,43.15
2023-04-20T03:31:59.436Z,43.40
2023-04-20T03:34:26.791Z,43.05
2023-04-20T03:36:53.458Z,42.60
2023-04-20T03:39:20.184Z,39.90
2023-04-20T03:41:46.849Z,38.58
2023-04-20T03:44:15.132Z,41.05
2023-04-20T03:46:41.660Z,42.15
2023-04-20T03:49:08.237Z,42.58
2023-04-20T03:51:34.785Z,41.80
2023-04-20T03:54:01.419Z,42.08
2023-04-20T03:56:28.515Z,39.38
2023-04-20T03:58:55.090Z,39.88
2023-04-20T04:01:21.696Z,39.20
2023-04-20T04:03:48.624Z,39.72
2023-04-20T04:06:15.611Z,40.65
2023-04-20T04:08:42.137Z,41.00
2023-04-20T04:11:08.777Z,41.20
2023-04-20T04:13:36.465Z,40.55
2023-04-20T04:16:03.138Z,41.70
2023-04-20T04:18:32.531Z,46.17
2023-04-20T04:20:59.552Z,47.40
2023-04-20T04:23:26.401Z,42.90
2023-04-20T04:25:52.968Z,44.67
2023-04-20T04:28:19.776Z,39.65
2023-04-20T04:30:47.432Z,39.85
2023-04-20T04:33:14.841Z,43.13
2023-04-20T04:35:41.701Z,44.80
2023-04-20T04:38:08.631Z,41.88
2023-04-20T04:40:35.907Z,43.45
2023-04-20T04:43:02.756Z,46.67
2023-04-20T04:45:29.507Z,48.38
2023-04-20T04:47:57.243Z,46.85
2023-04-20T04:50:23.932Z,46.60
2023-04-20T04:52:50.561Z,47.42
2023-04-20T04:55:17.264Z,45.17
2023-04-20T04:57:43.809Z,43.75
2023-04-20T05:00:12.462Z,47.03
2023-04-20T05:02:39.460Z,47.38
2023-04-20T05:05:09.405Z,46.72
2023-04-20T05:07:36.358Z,46.17
2023-04-20T05:10:02.965Z,49.38
2023-04-20T05:12:29.592Z,54.42
2023-04-20T05:14:56.156Z,53.25
2023-04-20T05:17:22.722Z,54.70
2023-04-20T05:19:49.335Z,60.58
2023-04-20T05:22:15.890Z,60.13
2023-04-20T05:24:42.599Z,58.83
2023-04-20T05:27:09.582Z,64.85
2023-04-20T05:29:36.378Z,69.72
2023-04-20T05:32:03.122Z,53.00
2023-04-20T05:34:29.997Z,48.85
2023-04-20T05:36:59.207Z,50.83
2023-04-20T05:39:26.431Z,59.58
2023-04-20T05:41:53.053Z,71.03
2023-04-20T05:44:19.568Z,57.70
2023-04-20T05:46:46.246Z,65.38
2023-04-20T05:49:12.816Z,70.38
2023-04-20T05:51:39.368Z,64.35
2023-04-20T05:54:06.164Z,57.00
2023-04-20T05:56:32.790Z,73.38
2023-04-20T05:59:00.071Z,84.32
2023-04-20T06:01:26.667Z,81.72
2023-04-20T06:03:53.485Z,81.88
2023-04-20T06:06:20.076Z,77.82
2023-04-20T06:08:46.668Z,74.90
2023-04-20T06:11:13.255Z,81.80
2023-04-20T06:13:39.838Z,92.22
2023-04-20T06:16:09.558Z,91.05
2023-04-20T06:18:37.262Z,64.85
2023-04-20T06:21:04.516Z,41.33
2023-04-20T06:23:31.479Z,55.05
2023-04-20T06:25:58.069Z,57.58
2023-04-20T06:28:24.714Z,65.78
2023-04-20T06:30:51.333Z,69.05
2023-04-20T06:33:18.058Z,66.63
2023-04-20T06:35:44.751Z,70.18
2023-04-20T06:38:11.427Z,72.72
2023-04-20T06:40:38.140Z,73.38
2023-04-20T06:43:04.732Z,75.38
2023-04-20T06:45:32.906Z,76.03
2023-04-20T06:48:00.748Z,69.32
2023-04-20T06:50:27.425Z,65.20
2023-04-20T06:52:54.052Z,66.28
2023-04-20T06:55:21.069Z,65.32
2023-04-20T06:57:47.661Z,62.17
2023-04-20T07:00:15.112Z,60.22
2023-04-20T07:02:51.537Z,61.13
2023-04-20T07:05:18.630Z,57.17
2023-04-20T07:07:45.681Z,59.53
2023-04-20T07:10:14.192Z,62.60
2023-04-20T07:12:42.821Z,63.88
2023-04-20T07:15:10.888Z,69.45
2023-04-20T07:17:37.522Z,67.55
2023-04-20T07:20:09.074Z,58.15
2023-04-20T07:22:38.959Z,65.15
2023-04-20T07:25:07.925Z,67.20
2023-04-20T07:27:36.641Z,63.08
2023-04-20T07:30:03.973Z,59.17
2023-04-20T07:32:30.596Z,52.05
2023-04-20T07:34:57.223Z,48.35
2023-04-20T07:37:25.814Z,49.65
2023-04-20T07:39:53.825Z,38.30
2023-04-20T07:42:21.569Z,36.63
2023-04-20T07:44:48.623Z,35.38
2023-04-20T07:47:15.439Z,32.28
2023-04-20T07:49:43.349Z,33.72
2023-04-20T07:52:16.941Z,33.97
2023-04-20T07:54:47.508Z,33.22
2023-04-20T07:57:14.109Z,36.15
2023-04-20T07:59:41.315Z,34.05
2023-04-20T08:02:08.732Z,31.17
2023-04-20T08:04:39.046Z,34.22
2023-04-20T08:07:05.877Z,28.15
2023-04-20T08:09:32.707Z,23.50
2023-04-20T08:12:00.348Z,25.20
2023-04-20T08:14:27.098Z,24.65
2023-04-20T08:16:53.729Z,24.13
2023-04-20T08:19:20.460Z,23.63
2023-04-20T08:21:47.020Z,19.95
2023-04-20T08:24:13.751Z,20.85
2023-04-20T08:26:40.848Z,18.75
2023-04-20T08:29:07.488Z,22.80
2023-04-20T08:31:34.272Z,22.35
2023-04-20T08:34:01.370Z,20.55
2023-04-20T08:36:28.179Z,19.33
2023-04-20T08:38:58.625Z,19.42
2023-04-20T08:41:26.402Z,23.98
2023-04-20T08:43:52.976Z,21.42
2023-04-20T08:46:19.978Z,18.65
2023-04-20T08:48:48.607Z,20.75
2023-04-20T08:51:17.208Z,20.30
2023-04-20T08:53:44.172Z,18.58
2023-04-20T08:56:11.170Z,21.65
2023-04-20T08:58:42.212Z,22.08
2023-04-20T09:01:10.559Z,21.90
2023-04-20T09:03:43.037Z,23.27
2023-04-20T09:06:18.403Z,20.95
2023-04-20T09:08:46.500Z,22.30
2023-04-20T09:11:23.786Z,20.70
2023-04-20T09:14:07.346Z,22.05
2023-04-20T09:16:40.119Z,22.45
2023-04-20T09:19:09.251Z,21.33
2023-04-20T09:21:36.417Z,20.30
2023-04-20T09:24:08.177Z,20.50
2023-04-20T09:26:36.265Z,20.40
2023-04-20T09:29:04.311Z,19.42
2023-04-20T09:31:31.051Z,17.63
2023-04-20T09:34:02.904Z,16.50
2023-04-20T09:36:37.353Z,16.77
2023-04-20T09:39:11.544Z,15.38
2023-04-20T09:44:06.254Z,14.63
2023-04-20T09:46:35.085Z,14.98
2023-04-20T09:49:04.346Z,14.20
2023-04-20T09:51:33.450Z,13.52
2023-04-20T09:54:01.759Z,13.95
2023-04-20T09:56:30.613Z,13.07
2023-04-20T09:58:58.207Z,11.98
2023-04-20T10:01:25.592Z,13.52
2023-04-20T10:03:57.577Z,12.48
2023-04-20T10:06:27.738Z,12.65
2023-04-20T10:08:55.383Z,12.13
2023-04-20T10:11:53.829Z,12.00
2023-04-20T10:14:26.154Z,13.05
2023-04-20T10:17:08.836Z,13.15
2023-04-20T10:19:39.109Z,12.68
2023-04-20T10:22:06.912Z,13.55
2023-04-20T10:24:33.580Z,12.93
2023-04-20T10:27:00.536Z,12.60
2023-04-20T10:29:28.821Z,13.35
2023-04-20T10:31:56.140Z,12.15
2023-04-20T10:34:36.314Z,12.77
2023-04-20T10:37:13.402Z,13.07
2023-04-20T10:39:47.227Z,12.70
2023-04-20T10:42:15.481Z,12.32
2023-04-20T10:44:54.586Z,13.77
2023-04-20T10:47:29.836Z,12.88
2023-04-20T10:50:15.650Z,13.80
2023-04-20T10:52:44.671Z,13.35
2023-04-20T10:55:25.009Z,12.90
2023-04-20T10:57:52.316Z,12.85
2023-04-20T11:00:21.736Z,13.38
2023-04-20T11:02:50.416Z,12.00
2023-04-20T11:05:18.881Z,13.63
2023-04-20T11:07:53.669Z,13.20
2023-04-20T11:10:22.060Z,12.38
2023-04-20T11:12:48.976Z,13.40
2023-04-20T11:15:16.410Z,12.52
2023-04-20T11:17:43.136Z,12.32
2023-04-20T11:20:15.472Z,12.57
2023-04-20T11:22:43.430Z,13.07
2023-04-20T11:25:11.956Z,13.27
2023-04-20T11:27:39.616Z,13.57
2023-04-20T11:30:09.076Z,17.25
2023-04-20T11:32:36.234Z,29.77
2023-04-20T11:35:07.812Z,16.70
2023-04-20T11:37:48.103Z,13.48
2023-04-20T11:40:15.327Z,14.63
2023-04-20T11:42:41.948Z,14.02
2023-04-20T11:45:09.151Z,13.68
2023-04-20T11:47:35.732Z,12.30
2023-04-20T11:50:02.292Z,14.18
2023-04-20T11:52:28.899Z,13.02
2023-04-20T11:54:55.487Z,12.30
2023-04-20T11:57:23.886Z,12.57
2023-04-20T11:59:50.633Z,12.00
2023-04-20T12:02:17.515Z,13.10
2023-04-20T12:04:44.328Z,12.48
2023-04-20T12:07:11.035Z,12.25
2023-04-20T12:09:38.434Z,12.55
2023-04-20T12:12:06.148Z,15.15
2023-04-20T12:14:33.727Z,11.98
2023-04-20T12:17:04.569Z,11.98
2023-04-20T12:19:32.102Z,12.40
2023-04-20T12:21:58.745Z,12.10
2023-04-20T12:24:25.351Z,13.75
2023-04-20T12:26:51.969Z,12.60
2023-04-20T12:29:18.656Z,11.88
2023-04-20T12:31:45.456Z,12.57
2023-04-20T12:34:12.328Z,11.93
2023-04-20T12:36:38.926Z,13.65
2023-04-20T12:39:05.630Z,12.68
2023-04-20T12:41:33.215Z,12.90
2023-04-20T12:44:00.762Z,12.45
2023-04-20T12:46:28.808Z,12.75
2023-04-20T12:48:56.196Z,13.52
2023-04-20T12:51:22.813Z,12.55
2023-04-20T12:53:49.416Z,13.20
2023-04-20T12:56:16.014Z,12.88
2023-04-20T12:58:42.581Z,12.55
2023-04-20T13:01:09.958Z,12.88
2023-04-20T13:03:36.802Z,11.90
2023-04-20T13:06:03.668Z,11.57
2023-04-20T13:08:30.440Z,11.60
2023-04-20T13:10:56.987Z,11.85
2023-04-20T13:13:23.525Z,11.18
2023-04-20T13:15:50.151Z,10.30
2023-04-20T13:18:16.750Z,10.70
2023-04-20T13:20:43.316Z,10.82
2023-04-20T13:23:09.947Z,11.10
2023-04-20T13:25:38.656Z,10.80
2023-04-20T13:28:05.612Z,9.45
2023-04-20T13:30:32.725Z,9.60
2023-04-20T13:32:59.400Z,10.57
2023-04-20T13:35:26.319Z,9.02
2023-04-20T13:37:52.888Z,8.70
2023-04-20T13:40:19.448Z,8.68
2023-04-20T13:42:46.080Z,8.05
2023-04-20T13:45:12.683Z,8.15
2023-04-20T13:47:40.389Z,8.60
2023-04-20T13:50:07.750Z,9.02
2023-04-20T13:52:34.726Z,8.85
2023-04-20T13:55:01.349Z,9.20
2023-04-20T13:57:27.966Z,8.75
2023-04-20T13:59:54.538Z,8.63
2023-04-20T14:02:21.405Z,8.45
2023-04-20T14:04:48.151Z,9.65
2023-04-20T14:07:14.809Z,8.75
2023-04-20T14:09:41.518Z,9.35
2023-04-20T14:12:08.193Z,9.18
2023-04-20T14:14:34.760Z,9.20
2023-04-20T14:17:02.022Z,9.60
2023-04-20T14:19:28.643Z,9.35
2023-04-20T14:21:55.376Z,9.10
2023-04-20T14:24:21.939Z,9.93
2023-04-20T14:26:48.571Z,8.88
2023-04-20T14:29:15.743Z,9.32
2023-04-20T14:31:42.404Z,9.43
2023-04-20T14:34:09.593Z,8.93
2023-04-20T14:36:36.235Z,8.80
2023-04-20T14:39:02.819Z,8.15
2023-04-20T14:41:30.659Z,7.88
2023-04-20T14:43:58.328Z,7.22
2023-04-20T14:46:25.057Z,7.00
2023-04-20T14:48:52.256Z,7.95
2023-04-20T14:51:20.814Z,7.90
2023-04-20T14:53:47.382Z,7.22
2023-04-20T14:56:13.955Z,7.35
2023-04-20T14:58:42.353Z,7.78
2023-04-20T15:01:09.086Z,8.55
2023-04-20T15:03:35.939Z,7.57
2023-04-20T15:06:03.599Z,7.38
2023-04-20T15:08:30.704Z,6.95
2023-04-20T15:10:57.504Z,6.97
2023-04-20T15:13:24.713Z,7.20
2023-04-20T15:15:54.185Z,7.30
2023-04-20T15:18:21.736Z,6.80
2023-04-20T15:20:50.451Z,7.55
2023-04-20T15:23:17.251Z,7.82
2023-04-20T15:25:43.949Z,7.97
2023-04-20T15:28:11.224Z,7.60
2023-04-20T15:30:37.904Z,7.05
2023-04-20T15:33:05.491Z,7.57
2023-04-20T15:35:32.893Z,7.00
2023-04-20T15:37:59.524Z,7.45
2023-04-20T15:40:27.354Z,8.05
2023-04-20T15:42:57.684Z,7.72
2023-04-20T15:45:24.621Z,7.90
2023-04-20T15:47:51.713Z,7.85
2023-04-20T15:50:19.080Z,7.47
2023-04-20T15:52:49.652Z,7.55
2023-04-20T15:55:16.760Z,7.13
2023-04-20T15:57:44.495Z,7.88
2023-04-20T16:00:12.213Z,7.93
2023-04-20T16:02:40.122Z,8.43
2023-04-20T16:05:07.754Z,8.60
2023-04-20T16:07:34.444Z,9.52
2023-04-20T16:10:02.177Z,9.55
2023-04-20T16:12:29.146Z,9.95
2023-04-20T16:14:57.108Z,9.40
2023-04-20T16:17:23.866Z,9.40
2023-04-20T16:19:50.471Z,8.20
2023-04-20T16:22:17.237Z,8.90
2023-04-20T16:24:43.780Z,8.60
2023-04-20T16:27:10.462Z,9.63
2023-04-20T16:29:37.055Z,9.02
2023-04-20T16:32:03.656Z,9.25
2023-04-20T16:34:31.595Z,9.77
2023-04-20T16:36:58.642Z,9.70
2023-04-20T16:39:25.330Z,10.38
2023-04-20T16:41:51.938Z,10.45
2023-04-20T16:44:18.745Z,9.57
2023-04-20T16:46:49.857Z,9.20
2023-04-20T16:49:16.666Z,9.50
2023-04-20T16:51:43.372Z,9.43
2023-04-20T16:54:11.538Z,9.48
2023-04-20T16:56:38.521Z,10.18
2023-04-20T16:59:05.355Z,10.52
2023-04-20T17:01:32.151Z,11.32
2023-04-20T17:03:59.828Z,11.00
2023-04-20T17:06:27.465Z,10.70
2023-04-20T17:08:56.012Z,11.20
2023-04-20T17:11:22.622Z,12.38
2023-04-20T17:13:49.349Z,11.57
2023-04-20T17:16:16.056Z,12.73
2023-04-20T17:18:42.675Z,14.05
2023-04-20T17:21:09.234Z,13.98
2023-04-20T17:23:36.083Z,14.32
2023-04-20T17:26:03.148Z,14.73
2023-04-20T17:28:29.803Z,14.48
2023-04-20T17:30:56.371Z,15.07
2023-04-20T17:33:22.973Z,15.95
2023-04-20T17:35:49.560Z,16.33
2023-04-20T17:38:16.136Z,18.00
2023-04-20T17:40:42.760Z,17.50
2023-04-20T17:43:09.445Z,18.95
2023-04-20T17:45:37.098Z,18.58
2023-04-20T17:48:04.091Z,19.52
2023-04-20T17:50:30.768Z,17.95
2023-04-20T17:52:57.385Z,17.58
2023-04-20T17:55:24.050Z,16.63
2023-04-20T17:57:50.986Z,16.58
2023-04-20T18:00:18.705Z,17.00
2023-04-20T18:02:45.437Z,16.05
2023-04-20T18:05:12.187Z,16.15
2023-04-20T18:07:38.757Z,16.55
2023-04-20T18:10:06.023Z,16.38
2023-04-20T18:12:33.619Z,16.05
2023-04-20T18:15:00.766Z,17.50
2023-04-20T18:17:27.528Z,15.85
2023-04-20T18:19:54.154Z,16.77
2023-04-20T18:22:20.931Z,15.38
2023-04-20T18:24:47.498Z,16.63
2023-04-20T18:27:14.068Z,15.45
2023-04-20T18:29:40.625Z,16.88
2023-04-20T18:32:07.178Z,16.35
2023-04-20T18:34:33.768Z,14.98
2023-04-20T18:37:00.425Z,14.23
2023-04-20T18:39:27.064Z,14.15
2023-04-20T18:41:53.674Z,14.05
2023-04-20T18:44:20.855Z,13.77
2023-04-20T18:46:47.805Z,13.00
2023-04-20T18:49:14.464Z,13.25
2023-04-20T18:51:41.043Z,13.43
2023-04-20T18:54:07.679Z,13.10
2023-04-20T18:56:34.271Z,14.32
2023-04-20T18:59:01.583Z,14.23
2023-04-20T19:01:28.634Z,14.75
2023-04-20T19:03:55.660Z,13.05
2023-04-20T19:06:22.584Z,13.02
2023-04-20T19:08:50.937Z,13.25
2023-04-20T19:11:17.765Z,13.30
2023-04-20T19:13:45.315Z,13.50
2023-04-20T19:16:12.773Z,15.13
2023-04-20T19:18:39.683Z,12.80
2023-04-20T19:21:06.768Z,13.50
2023-04-20T19:23:33.648Z,12.80
2023-04-20T19:26:00.410Z,14.93
2023-04-20T19:28:26.957Z,15.07
2023-04-20T19:30:53.682Z,14.65
2023-04-20T19:33:20.888Z,14.23
2023-04-20T19:35:53.562Z,14.30
2023-04-20T19:38:21.533Z,13.90
2023-04-20T19:40:48.578Z,13.73
2023-04-20T19:43:16.931Z,14.63
2023-04-20T19:45:44.127Z,14.25
2023-04-20T19:48:10.912Z,14.20
2023-04-20T19:50:37.512Z,15.07
2023-04-20T19:53:04.107Z,14.80
2023-04-20T19:55:31.039Z,14.35
2023-04-20T19:57:57.628Z,13.73
2023-04-20T20:00:24.251Z,12.73
2023-04-20T20:02:50.898Z,13.75
2023-04-20T20:05:17.663Z,13.93
2023-04-20T20:07:44.364Z,13.48
2023-04-20T20:10:11.113Z,13.55
2023-04-20T20:12:37.698Z,13.00
2023-04-20T20:15:04.863Z,15.25
2023-04-20T20:17:31.662Z,12.30
2023-04-20T20:19:58.342Z,13.48
2023-04-20T20:22:25.234Z,13.15
2023-04-20T20:24:54.219Z,12.45
2023-04-20T20:27:21.256Z,12.38
2023-04-20T20:29:47.974Z,11.95
2023-04-20T20:32:14.699Z,12.52
2023-04-20T20:34:41.634Z,12.70
2023-04-20T20:37:10.305Z,12.57
2023-04-20T20:39:37.467Z,12.23
2023-04-20T20:42:05.383Z,13.75
2023-04-20T20:44:34.258Z,12.68
2023-04-20T20:47:01.102Z,13.15
2023-04-20T20:49:29.208Z,13.10
2023-04-20T20:51:55.960Z,13.35
2023-04-20T20:54:22.557Z,14.70
2023-04-20T20:56:49.195Z,12.90
2023-04-20T20:59:15.840Z,13.30
2023-04-20T21:01:42.570Z,14.00
2023-04-20T21:04:09.305Z,15.10
2023-04-20T21:06:36.167Z,15.18
2023-04-20T21:09:02.776Z,14.40
2023-04-20T21:11:29.408Z,15.57
2023-04-20T21:14:01.511Z,17.33
2023-04-20T21:16:28.671Z,17.65
2023-04-20T21:18:55.334Z,17.42
2023-04-20T21:21:21.928Z,16.73
2023-04-20T21:23:49.773Z,17.02
2023-04-20T21:26:16.491Z,18.38
2023-04-20T21:28:43.032Z,18.83
2023-04-20T21:31:09.676Z,20.45
2023-04-20T21:33:36.517Z,19.80
2023-04-20T21:36:03.125Z,20.85
2023-04-20T21:38:29.672Z,20.85
2023-04-20T21:40:56.222Z,20.52
2023-04-20T21:43:22.768Z,21.27
2023-04-20T21:45:50.853Z,21.00
2023-04-20T21:48:18.129Z,20.92
2023-04-20T21:50:44.691Z,22.15
2023-04-20T21:53:11.273Z,20.25
2023-04-20T21:55:37.839Z,21.35
2023-04-20T21:58:06.671Z,19.90
2023-04-20T22:00:33.246Z,20.83
2023-04-20T22:02:59.969Z,20.73
2023-04-20T22:05:27.841Z,20.92
2023-04-20T22:07:54.414Z,20.40
2023-04-20T22:10:21.183Z,20.80
2023-04-20T22:12:47.859Z,21.33
2023-04-20T22:15:15.023Z,21.70
2023-04-20T22:17:41.653Z,21.17
2023-04-20T22:20:10.313Z,23.15
2023-04-20T22:22:37.810Z,22.08
2023-04-20T22:25:05.316Z,22.45
2023-04-20T22:27:34.028Z,22.33
2023-04-20T22:30:00.870Z,22.52
2023-04-20T22:32:27.714Z,23.90
2023-04-20T22:34:54.371Z,23.63
2023-04-20T22:37:21.067Z,24.25
2023-04-20T22:39:47.621Z,25.10
2023-04-20T22:42:14.177Z,25.75
2023-04-20T22:44:40.882Z,30.20
2023-04-20T22:47:07.654Z,31.40
2023-04-20T22:49:34.974Z,33.33
2023-04-20T22:52:01.732Z,32.90
2023-04-20T22:54:28.335Z,34.42
2023-04-20T22:56:54.892Z,34.20
2023-04-20T22:59:21.570Z,44.60
2023-04-20T23:01:48.325Z,50.92
2023-04-20T23:04:14.996Z,55.63
2023-04-20T23:06:43.869Z,69.28
2023-04-20T23:09:13.285Z,70.05
2023-04-20T23:11:40.540Z,72.55
2023-04-20T23:14:08.671Z,67.20
2023-04-20T23:16:35.950Z,68.15
2023-04-20T23:19:02.627Z,68.30
2023-04-20T23:21:29.233Z,66.93
2023-04-20T23:23:58.986Z,71.90
2023-04-20T23:26:25.554Z,67.57
2023-04-20T23:28:53.446Z,81.43
2023-04-20T23:31:20.709Z,85.18
2023-04-20T23:33:48.207Z,84.97
2023-04-20T23:36:14.922Z,94.18
2023-04-20T23:38:42.016Z,100.85
2023-04-20T23:41:12.662Z,120.40
2023-04-20T23:43:39.899Z,122.43
2023-04-20T23:46:07.295Z,118.90
2023-04-20T23:48:34.686Z,119.35
2023-04-20T23:51:01.750Z,126.65
2023-04-20T23:53:28.505Z,136.93
2023-04-20T23:55:59.907Z,145.45
2023-04-20T23:58:28.274Z,134.05
